sensor_id;sensor_type;location;lat;lon;timestamp;P1;durP1;ratioP1;P2;durP2;ratioP2
34960;SDS011;30789;52.030;7.110;2022-09-02T00:01:20;0.80;;;0.40;;
34960;SDS011;30789;52.030;7.110;2022-09-02T00:03:48;0.35;;;0.35;;
34960;SDS011;30789;52.030;7.110;2022-09-02T00:06:15;1.48;;;0.30;;
34960;SDS011;30789;52.030;7.110;2022-09-02T00:08:41;0.38;;;0.30;;
34960;SDS011;30789;52.030;7.110;2022-09-02T00:11:08;1.13;;;0.30;;
34960;SDS011;30789;52.030;7.110;2022-09-02T00:13:37;0.52;;;0.47;;
34960;SDS011;30789;52.030;7.110;2022-09-02T00:16:05;0.85;;;0.40;;
34960;SDS011;30789;52.030;7.110;2022-09-02T00:18:31;1.30;;;0.60;;
34960;SDS011;30789;52.030;7.110;2022-09-02T00:20:58;0.20;;;0.20;;
34960;SDS011;30789;52.030;7.110;2022-09-02T00:23:24;0.40;;;0.30;;
34960;SDS011;30789;52.030;7.110;2022-09-02T00:25:51;2.05;;;0.40;;
34960;SDS011;30789;52.030;7.110;2022-09-02T00:28:17;0.95;;;0.40;;
34960;SDS011;30789;52.030;7.110;2022-09-02T00:30:44;0.40;;;0.40;;
34960;SDS011;30789;52.030;7.110;2022-09-02T00:33:12;0.40;;;0.30;;
34960;SDS011;30789;52.030;7.110;2022-09-02T00:35:38;0.32;;;0.20;;
34960;SDS011;30789;52.030;7.110;2022-09-02T00:38:05;0.38;;;0.30;;
34960;SDS011;30789;52.030;7.110;2022-09-02T00:40:32;1.08;;;0.38;;
34960;SDS011;30789;52.030;7.110;2022-09-02T00:42:58;0.50;;;0.30;;
34960;SDS011;30789;52.030;7.110;2022-09-02T00:45:25;0.70;;;0.40;;
34960;SDS011;30789;52.030;7.110;2022-09-02T00:47:51;0.65;;;0.40;;
34960;SDS011;30789;52.030;7.110;2022-09-02T00:50:20;0.43;;;0.40;;
34960;SDS011;30789;52.030;7.110;2022-09-02T00:52:48;0.50;;;0.30;;
34960;SDS011;30789;52.030;7.110;2022-09-02T00:55:16;1.38;;;0.50;;
34960;SDS011;30789;52.030;7.110;2022-09-02T00:57:44;1.00;;;0.50;;
34960;SDS011;30789;52.030;7.110;2022-09-02T01:00:13;0.60;;;0.35;;
34960;SDS011;30789;52.030;7.110;2022-09-02T01:02:42;0.85;;;0.45;;
34960;SDS011;30789;52.030;7.110;2022-09-02T01:05:11;0.88;;;0.50;;
34960;SDS011;30789;52.030;7.110;2022-09-02T01:07:38;0.30;;;0.30;;
34960;SDS011;30789;52.030;7.110;2022-09-02T01:10:07;0.35;;;0.30;;
34960;SDS011;30789;52.030;7.110;2022-09-02T01:12:35;0.70;;;0.40;;
34960;SDS011;30789;52.030;7.110;2022-09-02T01:15:02;0.40;;;0.30;;
34960;SDS011;30789;52.030;7.110;2022-09-02T01:17:29;0.32;;;0.32;;
34960;SDS011;30789;52.030;7.110;2022-09-02T01:19:59;1.67;;;0.40;;
34960;SDS011;30789;52.030;7.110;2022-09-02T01:22:29;1.80;;;0.50;;
34960;SDS011;30789;52.030;7.110;2022-09-02T01:24:59;0.88;;;0.30;;
34960;SDS011;30789;52.030;7.110;2022-09-02T01:27:27;1.40;;;0.33;;
34960;SDS011;30789;52.030;7.110;2022-09-02T01:29:54;0.43;;;0.40;;
34960;SDS011;30789;52.030;7.110;2022-09-02T01:32:21;0.77;;;0.47;;
34960;SDS011;30789;52.030;7.110;2022-09-02T01:34:48;0.30;;;0.30;;
34960;SDS011;30789;52.030;7.110;2022-09-02T01:37:14;0.60;;;0.40;;
34960;SDS011;30789;52.030;7.110;2022-09-02T01:39:42;0.73;;;0.38;;
34960;SDS011;30789;52.030;7.110;2022-09-02T01:42:10;0.43;;;0.43;;
34960;SDS011;30789;52.030;7.110;2022-09-02T01:44:36;1.42;;;0.40;;
34960;SDS011;30789;52.030;7.110;2022-09-02T01:47:08;1.00;;;0.40;;
34960;SDS011;30789;52.030;7.110;2022-09-02T01:49:34;0.40;;;0.32;;
34960;SDS011;30789;52.030;7.110;2022-09-02T01:52:00;0.43;;;0.40;;
34960;SDS011;30789;52.030;7.110;2022-09-02T01:54:27;0.60;;;0.28;;
34960;SDS011;30789;52.030;7.110;2022-09-02T01:56:54;1.45;;;0.40;;
34960;SDS011;30789;52.030;7.110;2022-09-02T01:59:21;2.75;;;0.30;;
34960;SDS011;30789;52.030;7.110;2022-09-02T02:01:47;0.57;;;0.35;;
34960;SDS011;30789;52.030;7.110;2022-09-02T02:04:13;1.60;;;0.50;;
34960;SDS011;30789;52.030;7.110;2022-09-02T02:06:40;0.82;;;0.50;;
34960;SDS011;30789;52.030;7.110;2022-09-02T02:09:07;0.95;;;0.50;;
34960;SDS011;30789;52.030;7.110;2022-09-02T02:11:33;0.43;;;0.43;;
34960;SDS011;30789;52.030;7.110;2022-09-02T02:14:01;0.20;;;0.20;;
34960;SDS011;30789;52.030;7.110;2022-09-02T02:16:27;4.75;;;0.60;;
34960;SDS011;30789;52.030;7.110;2022-09-02T02:18:54;0.50;;;0.30;;
34960;SDS011;30789;52.030;7.110;2022-09-02T02:21:20;0.38;;;0.35;;
34960;SDS011;30789;52.030;7.110;2022-09-02T02:23:47;0.73;;;0.52;;
34960;SDS011;30789;52.030;7.110;2022-09-02T02:26:13;0.98;;;0.32;;
34960;SDS011;30789;52.030;7.110;2022-09-02T02:28:39;1.73;;;0.40;;
34960;SDS011;30789;52.030;7.110;2022-09-02T02:31:07;2.95;;;0.55;;
34960;SDS011;30789;52.030;7.110;2022-09-02T02:33:33;0.77;;;0.38;;
34960;SDS011;30789;52.030;7.110;2022-09-02T02:36:00;1.95;;;0.55;;
34960;SDS011;30789;52.030;7.110;2022-09-02T02:38:28;2.90;;;0.63;;
34960;SDS011;30789;52.030;7.110;2022-09-02T02:40:55;0.98;;;0.50;;
34960;SDS011;30789;52.030;7.110;2022-09-02T02:43:22;0.22;;;0.22;;
34960;SDS011;30789;52.030;7.110;2022-09-02T02:45:48;2.45;;;0.50;;
34960;SDS011;30789;52.030;7.110;2022-09-02T02:48:16;0.32;;;0.32;;
34960;SDS011;30789;52.030;7.110;2022-09-02T02:50:42;0.40;;;0.40;;
34960;SDS011;30789;52.030;7.110;2022-09-02T02:53:09;0.57;;;0.50;;
34960;SDS011;30789;52.030;7.110;2022-09-02T02:55:36;2.33;;;0.60;;
34960;SDS011;30789;52.030;7.110;2022-09-02T02:58:03;0.50;;;0.43;;
34960;SDS011;30789;52.030;7.110;2022-09-02T03:00:30;0.77;;;0.40;;
34960;SDS011;30789;52.030;7.110;2022-09-02T03:02:57;0.43;;;0.30;;
34960;SDS011;30789;52.030;7.110;2022-09-02T03:05:25;0.40;;;0.40;;
34960;SDS011;30789;52.030;7.110;2022-09-02T03:07:52;1.25;;;0.50;;
34960;SDS011;30789;52.030;7.110;2022-09-02T03:10:19;0.47;;;0.30;;
34960;SDS011;30789;52.030;7.110;2022-09-02T03:12:45;1.55;;;0.50;;
34960;SDS011;30789;52.030;7.110;2022-09-02T03:15:13;0.60;;;0.32;;
34960;SDS011;30789;52.030;7.110;2022-09-02T03:17:41;0.95;;;0.40;;
34960;SDS011;30789;52.030;7.110;2022-09-02T03:20:07;0.52;;;0.30;;
34960;SDS011;30789;52.030;7.110;2022-09-02T03:22:35;0.47;;;0.35;;
34960;SDS011;30789;52.030;7.110;2022-09-02T03:25:03;0.30;;;0.30;;
34960;SDS011;30789;52.030;7.110;2022-09-02T03:27:30;1.90;;;0.52;;
34960;SDS011;30789;52.030;7.110;2022-09-02T03:29:58;1.08;;;0.40;;
34960;SDS011;30789;52.030;7.110;2022-09-02T03:32:24;3.17;;;0.40;;
34960;SDS011;30789;52.030;7.110;2022-09-02T03:34:51;2.58;;;0.52;;
34960;SDS011;30789;52.030;7.110;2022-09-02T03:37:18;0.57;;;0.43;;
34960;SDS011;30789;52.030;7.110;2022-09-02T03:39:45;0.57;;;0.50;;
34960;SDS011;30789;52.030;7.110;2022-09-02T03:42:12;0.50;;;0.40;;
34960;SDS011;30789;52.030;7.110;2022-09-02T03:44:38;2.63;;;0.43;;
34960;SDS011;30789;52.030;7.110;2022-09-02T03:47:05;2.65;;;0.60;;
34960;SDS011;30789;52.030;7.110;2022-09-02T03:49:32;2.22;;;0.70;;
34960;SDS011;30789;52.030;7.110;2022-09-02T03:51:58;0.82;;;0.60;;
34960;SDS011;30789;52.030;7.110;2022-09-02T03:54:25;0.85;;;0.50;;
34960;SDS011;30789;52.030;7.110;2022-09-02T03:56:52;0.60;;;0.60;;
34960;SDS011;30789;52.030;7.110;2022-09-02T03:59:19;1.17;;;0.40;;
34960;SDS011;30789;52.030;7.110;2022-09-02T04:01:45;1.08;;;0.60;;
34960;SDS011;30789;52.030;7.110;2022-09-02T04:04:12;2.05;;;0.40;;
34960;SDS011;30789;52.030;7.110;2022-09-02T04:06:38;0.47;;;0.40;;
34960;SDS011;30789;52.030;7.110;2022-09-02T04:09:04;2.55;;;0.47;;
34960;SDS011;30789;52.030;7.110;2022-09-02T04:11:31;0.70;;;0.50;;
34960;SDS011;30789;52.030;7.110;2022-09-02T04:13:59;0.43;;;0.43;;
34960;SDS011;30789;52.030;7.110;2022-09-02T04:16:25;0.50;;;0.40;;
34960;SDS011;30789;52.030;7.110;2022-09-02T04:18:53;0.75;;;0.60;;
34960;SDS011;30789;52.030;7.110;2022-09-02T04:21:19;0.75;;;0.50;;
34960;SDS011;30789;52.030;7.110;2022-09-02T04:23:46;0.77;;;0.55;;
34960;SDS011;30789;52.030;7.110;2022-09-02T04:26:14;2.55;;;0.50;;
34960;SDS011;30789;52.030;7.110;2022-09-02T04:28:41;0.60;;;0.47;;
34960;SDS011;30789;52.030;7.110;2022-09-02T04:31:10;1.00;;;0.30;;
34960;SDS011;30789;52.030;7.110;2022-09-02T04:33:38;0.50;;;0.40;;
34960;SDS011;30789;52.030;7.110;2022-09-02T04:36:04;0.80;;;0.40;;
34960;SDS011;30789;52.030;7.110;2022-09-02T04:38:31;1.08;;;0.38;;
34960;SDS011;30789;52.030;7.110;2022-09-02T04:40:58;1.80;;;0.40;;
34960;SDS011;30789;52.030;7.110;2022-09-02T04:43:24;2.38;;;0.52;;
34960;SDS011;30789;52.030;7.110;2022-09-02T04:45:50;0.60;;;0.43;;
34960;SDS011;30789;52.030;7.110;2022-09-02T04:48:18;0.93;;;0.65;;
34960;SDS011;30789;52.030;7.110;2022-09-02T04:50:44;0.82;;;0.57;;
34960;SDS011;30789;52.030;7.110;2022-09-02T04:53:11;0.88;;;0.60;;
34960;SDS011;30789;52.030;7.110;2022-09-02T04:55:38;1.40;;;0.70;;
34960;SDS011;30789;52.030;7.110;2022-09-02T04:58:05;0.82;;;0.50;;
34960;SDS011;30789;52.030;7.110;2022-09-02T05:00:32;1.20;;;0.60;;
34960;SDS011;30789;52.030;7.110;2022-09-02T05:02:58;1.45;;;0.60;;
34960;SDS011;30789;52.030;7.110;2022-09-02T05:05:26;0.68;;;0.55;;
34960;SDS011;30789;52.030;7.110;2022-09-02T05:07:52;0.57;;;0.50;;
34960;SDS011;30789;52.030;7.110;2022-09-02T05:10:20;1.60;;;0.50;;
34960;SDS011;30789;52.030;7.110;2022-09-02T05:12:46;0.50;;;0.50;;
34960;SDS011;30789;52.030;7.110;2022-09-02T05:15:12;0.40;;;0.40;;
34960;SDS011;30789;52.030;7.110;2022-09-02T05:17:39;1.98;;;0.82;;
34960;SDS011;30789;52.030;7.110;2022-09-02T05:20:06;2.22;;;0.50;;
34960;SDS011;30789;52.030;7.110;2022-09-02T05:22:34;3.22;;;0.80;;
34960;SDS011;30789;52.030;7.110;2022-09-02T05:25:01;0.82;;;0.52;;
34960;SDS011;30789;52.030;7.110;2022-09-02T05:27:27;1.10;;;0.50;;
34960;SDS011;30789;52.030;7.110;2022-09-02T05:29:54;2.35;;;0.60;;
34960;SDS011;30789;52.030;7.110;2022-09-02T05:32:21;0.70;;;0.60;;
34960;SDS011;30789;52.030;7.110;2022-09-02T05:34:48;1.50;;;0.57;;
34960;SDS011;30789;52.030;7.110;2022-09-02T05:37:14;3.35;;;0.65;;
34960;SDS011;30789;52.030;7.110;2022-09-02T05:39:42;0.70;;;0.63;;
34960;SDS011;30789;52.030;7.110;2022-09-02T05:42:09;0.73;;;0.50;;
34960;SDS011;30789;52.030;7.110;2022-09-02T05:44:35;1.60;;;0.65;;
34960;SDS011;30789;52.030;7.110;2022-09-02T05:47:03;0.98;;;0.63;;
34960;SDS011;30789;52.030;7.110;2022-09-02T05:49:29;1.08;;;0.35;;
34960;SDS011;30789;52.030;7.110;2022-09-02T05:51:56;0.80;;;0.50;;
34960;SDS011;30789;52.030;7.110;2022-09-02T05:54:24;1.42;;;0.68;;
34960;SDS011;30789;52.030;7.110;2022-09-02T05:56:54;1.98;;;0.60;;
34960;SDS011;30789;52.030;7.110;2022-09-02T05:59:21;1.80;;;0.50;;
34960;SDS011;30789;52.030;7.110;2022-09-02T06:01:48;0.90;;;0.60;;
34960;SDS011;30789;52.030;7.110;2022-09-02T06:04:15;1.30;;;0.50;;
34960;SDS011;30789;52.030;7.110;2022-09-02T06:06:42;1.60;;;0.50;;
34960;SDS011;30789;52.030;7.110;2022-09-02T06:09:09;1.58;;;0.60;;
34960;SDS011;30789;52.030;7.110;2022-09-02T06:11:37;1.77;;;0.52;;
34960;SDS011;30789;52.030;7.110;2022-09-02T06:14:05;0.70;;;0.60;;
34960;SDS011;30789;52.030;7.110;2022-09-02T06:16:32;1.85;;;0.63;;
34960;SDS011;30789;52.030;7.110;2022-09-02T06:18:59;4.15;;;0.65;;
34960;SDS011;30789;52.030;7.110;2022-09-02T06:21:27;2.47;;;0.70;;
34960;SDS011;30789;52.030;7.110;2022-09-02T06:23:54;2.65;;;0.57;;
34960;SDS011;30789;52.030;7.110;2022-09-02T06:26:20;0.63;;;0.40;;
34960;SDS011;30789;52.030;7.110;2022-09-02T06:28:47;0.93;;;0.50;;
34960;SDS011;30789;52.030;7.110;2022-09-02T06:31:15;2.10;;;0.65;;
34960;SDS011;30789;52.030;7.110;2022-09-02T06:33:42;0.70;;;0.50;;
34960;SDS011;30789;52.030;7.110;2022-09-02T06:36:09;0.70;;;0.50;;
34960;SDS011;30789;52.030;7.110;2022-09-02T06:38:36;2.00;;;0.68;;
34960;SDS011;30789;52.030;7.110;2022-09-02T06:41:03;1.92;;;0.65;;
34960;SDS011;30789;52.030;7.110;2022-09-02T06:43:30;2.53;;;0.57;;
34960;SDS011;30789;52.030;7.110;2022-09-02T06:45:56;0.60;;;0.60;;
34960;SDS011;30789;52.030;7.110;2022-09-02T06:48:24;0.70;;;0.70;;
34960;SDS011;30789;52.030;7.110;2022-09-02T06:50:50;3.63;;;0.68;;
34960;SDS011;30789;52.030;7.110;2022-09-02T06:53:17;1.38;;;0.60;;
34960;SDS011;30789;52.030;7.110;2022-09-02T06:55:44;1.55;;;0.68;;
34960;SDS011;30789;52.030;7.110;2022-09-02T06:58:11;0.68;;;0.60;;
34960;SDS011;30789;52.030;7.110;2022-09-02T07:00:38;0.98;;;0.70;;
34960;SDS011;30789;52.030;7.110;2022-09-02T07:03:05;1.45;;;0.95;;
34960;SDS011;30789;52.030;7.110;2022-09-02T07:05:58;0.50;;;0.50;;
34960;SDS011;30789;52.030;7.110;2022-09-02T07:08:24;3.75;;;0.90;;
34960;SDS011;30789;52.030;7.110;2022-09-02T07:10:51;2.30;;;0.77;;
34960;SDS011;30789;52.030;7.110;2022-09-02T07:13:17;1.05;;;0.70;;
34960;SDS011;30789;52.030;7.110;2022-09-02T07:15:43;4.43;;;0.65;;
34960;SDS011;30789;52.030;7.110;2022-09-02T07:18:10;0.98;;;0.70;;
34960;SDS011;30789;52.030;7.110;2022-09-02T07:20:36;0.40;;;0.40;;
34960;SDS011;30789;52.030;7.110;2022-09-02T07:23:04;4.80;;;0.68;;
34960;SDS011;30789;52.030;7.110;2022-09-02T07:25:31;3.47;;;1.02;;
34960;SDS011;30789;52.030;7.110;2022-09-02T07:27:57;1.92;;;1.00;;
34960;SDS011;30789;52.030;7.110;2022-09-02T07:30:24;1.88;;;0.90;;
34960;SDS011;30789;52.030;7.110;2022-09-02T07:32:50;0.80;;;0.50;;
34960;SDS011;30789;52.030;7.110;2022-09-02T07:35:17;2.70;;;0.70;;
34960;SDS011;30789;52.030;7.110;2022-09-02T07:37:43;1.08;;;0.70;;
34960;SDS011;30789;52.030;7.110;2022-09-02T07:40:11;2.65;;;0.60;;
34960;SDS011;30789;52.030;7.110;2022-09-02T07:42:39;3.10;;;0.57;;
34960;SDS011;30789;52.030;7.110;2022-09-02T07:45:05;2.95;;;0.70;;
34960;SDS011;30789;52.030;7.110;2022-09-02T07:47:33;1.50;;;0.50;;
34960;SDS011;30789;52.030;7.110;2022-09-02T07:49:59;0.55;;;0.50;;
34960;SDS011;30789;52.030;7.110;2022-09-02T07:52:25;1.30;;;0.65;;
34960;SDS011;30789;52.030;7.110;2022-09-02T07:54:52;1.40;;;0.65;;
34960;SDS011;30789;52.030;7.110;2022-09-02T07:57:19;1.83;;;0.85;;
34960;SDS011;30789;52.030;7.110;2022-09-02T07:59:46;1.15;;;0.80;;
34960;SDS011;30789;52.030;7.110;2022-09-02T08:02:12;3.58;;;0.90;;
34960;SDS011;30789;52.030;7.110;2022-09-02T08:04:39;0.60;;;0.60;;
34960;SDS011;30789;52.030;7.110;2022-09-02T08:07:06;1.13;;;0.75;;
34960;SDS011;30789;52.030;7.110;2022-09-02T08:09:32;0.80;;;0.68;;
34960;SDS011;30789;52.030;7.110;2022-09-02T08:11:59;0.65;;;0.47;;
34960;SDS011;30789;52.030;7.110;2022-09-02T08:14:26;1.83;;;0.77;;
34960;SDS011;30789;52.030;7.110;2022-09-02T08:16:53;1.48;;;0.65;;
34960;SDS011;30789;52.030;7.110;2022-09-02T08:19:20;3.55;;;0.60;;
34960;SDS011;30789;52.030;7.110;2022-09-02T08:21:47;1.30;;;0.70;;
34960;SDS011;30789;52.030;7.110;2022-09-02T08:24:13;0.85;;;0.60;;
34960;SDS011;30789;52.030;7.110;2022-09-02T08:26:39;1.13;;;0.70;;
34960;SDS011;30789;52.030;7.110;2022-09-02T08:29:06;1.33;;;0.60;;
34960;SDS011;30789;52.030;7.110;2022-09-02T08:31:35;2.35;;;0.73;;
34960;SDS011;30789;52.030;7.110;2022-09-02T08:34:01;2.35;;;0.77;;
34960;SDS011;30789;52.030;7.110;2022-09-02T08:36:28;1.45;;;0.60;;
34960;SDS011;30789;52.030;7.110;2022-09-02T08:38:54;1.83;;;0.90;;
34960;SDS011;30789;52.030;7.110;2022-09-02T08:41:21;2.42;;;0.70;;
34960;SDS011;30789;52.030;7.110;2022-09-02T08:43:48;2.05;;;0.70;;
34960;SDS011;30789;52.030;7.110;2022-09-02T08:46:16;0.73;;;0.60;;
34960;SDS011;30789;52.030;7.110;2022-09-02T08:48:45;3.80;;;0.60;;
34960;SDS011;30789;52.030;7.110;2022-09-02T08:51:15;1.23;;;0.80;;
34960;SDS011;30789;52.030;7.110;2022-09-02T08:53:45;2.25;;;0.88;;
34960;SDS011;30789;52.030;7.110;2022-09-02T08:56:13;0.88;;;0.77;;
34960;SDS011;30789;52.030;7.110;2022-09-02T08:58:41;1.48;;;1.05;;
34960;SDS011;30789;52.030;7.110;2022-09-02T09:01:09;2.22;;;0.80;;
34960;SDS011;30789;52.030;7.110;2022-09-02T09:03:38;6.30;;;0.90;;
34960;SDS011;30789;52.030;7.110;2022-09-02T09:06:11;1.23;;;0.90;;
34960;SDS011;30789;52.030;7.110;2022-09-02T09:08:42;3.15;;;0.90;;
34960;SDS011;30789;52.030;7.110;2022-09-02T09:11:13;1.60;;;0.57;;
34960;SDS011;30789;52.030;7.110;2022-09-02T09:13:44;4.03;;;0.95;;
34960;SDS011;30789;52.030;7.110;2022-09-02T09:16:13;1.58;;;0.73;;
34960;SDS011;30789;52.030;7.110;2022-09-02T09:18:45;2.35;;;0.90;;
34960;SDS011;30789;52.030;7.110;2022-09-02T09:21:15;1.30;;;0.95;;
34960;SDS011;30789;52.030;7.110;2022-09-02T09:23:42;1.02;;;0.57;;
34960;SDS011;30789;52.030;7.110;2022-09-02T09:26:09;2.55;;;0.68;;
34960;SDS011;30789;52.030;7.110;2022-09-02T09:28:36;2.33;;;0.80;;
34960;SDS011;30789;52.030;7.110;2022-09-02T09:31:05;3.20;;;1.00;;
34960;SDS011;30789;52.030;7.110;2022-09-02T09:33:31;1.40;;;0.93;;
34960;SDS011;30789;52.030;7.110;2022-09-02T09:35:58;1.02;;;0.73;;
34960;SDS011;30789;52.030;7.110;2022-09-02T09:38:28;1.52;;;0.70;;
34960;SDS011;30789;52.030;7.110;2022-09-02T09:41:08;1.95;;;0.70;;
34960;SDS011;30789;52.030;7.110;2022-09-02T09:43:36;2.15;;;0.85;;
34960;SDS011;30789;52.030;7.110;2022-09-02T09:46:08;2.38;;;1.00;;
34960;SDS011;30789;52.030;7.110;2022-09-02T09:48:47;0.90;;;0.80;;
34960;SDS011;30789;52.030;7.110;2022-09-02T09:51:15;0.95;;;0.60;;
34960;SDS011;30789;52.030;7.110;2022-09-02T09:53:43;1.05;;;0.80;;
34960;SDS011;30789;52.030;7.110;2022-09-02T09:56:23;1.92;;;0.85;;
34960;SDS011;30789;52.030;7.110;2022-09-02T09:58:50;2.60;;;0.90;;
34960;SDS011;30789;52.030;7.110;2022-09-02T10:01:17;1.50;;;0.73;;
34960;SDS011;30789;52.030;7.110;2022-09-02T10:03:47;1.23;;;1.00;;
34960;SDS011;30789;52.030;7.110;2022-09-02T10:06:17;1.48;;;1.00;;
34960;SDS011;30789;52.030;7.110;2022-09-02T10:08:50;0.95;;;0.73;;
34960;SDS011;30789;52.030;7.110;2022-09-02T10:11:18;1.85;;;0.90;;
34960;SDS011;30789;52.030;7.110;2022-09-02T10:13:45;1.17;;;0.85;;
34960;SDS011;30789;52.030;7.110;2022-09-02T10:16:14;2.80;;;0.95;;
34960;SDS011;30789;52.030;7.110;2022-09-02T10:18:48;1.02;;;0.68;;
34960;SDS011;30789;52.030;7.110;2022-09-02T10:21:20;2.42;;;1.13;;
34960;SDS011;30789;52.030;7.110;2022-09-02T10:23:51;2.53;;;0.85;;
34960;SDS011;30789;52.030;7.110;2022-09-02T10:26:23;2.45;;;0.80;;
34960;SDS011;30789;52.030;7.110;2022-09-02T10:28:59;1.73;;;0.80;;
34960;SDS011;30789;52.030;7.110;2022-09-02T10:31:28;0.60;;;0.60;;
34960;SDS011;30789;52.030;7.110;2022-09-02T10:34:01;1.65;;;0.75;;
34960;SDS011;30789;52.030;7.110;2022-09-02T10:36:31;2.55;;;1.00;;
34960;SDS011;30789;52.030;7.110;2022-09-02T10:39:04;7.83;;;1.10;;
34960;SDS011;30789;52.030;7.110;2022-09-02T10:41:36;1.58;;;0.70;;
34960;SDS011;30789;52.030;7.110;2022-09-02T10:44:10;0.70;;;0.70;;
34960;SDS011;30789;52.030;7.110;2022-09-02T10:46:41;2.03;;;0.75;;
34960;SDS011;30789;52.030;7.110;2022-09-02T10:49:11;0.70;;;0.70;;
34960;SDS011;30789;52.030;7.110;2022-09-02T10:51:42;0.65;;;0.65;;
34960;SDS011;30789;52.030;7.110;2022-09-02T10:54:18;2.30;;;0.82;;
34960;SDS011;30789;52.030;7.110;2022-09-02T10:56:49;1.23;;;0.75;;
34960;SDS011;30789;52.030;7.110;2022-09-02T10:59:19;5.30;;;0.90;;
34960;SDS011;30789;52.030;7.110;2022-09-02T11:01:47;1.10;;;0.88;;
34960;SDS011;30789;52.030;7.110;2022-09-02T11:04:17;0.93;;;0.80;;
34960;SDS011;30789;52.030;7.110;2022-09-02T11:06:46;1.67;;;0.85;;
34960;SDS011;30789;52.030;7.110;2022-09-02T11:09:18;2.15;;;0.80;;
34960;SDS011;30789;52.030;7.110;2022-09-02T11:11:48;2.05;;;0.90;;
34960;SDS011;30789;52.030;7.110;2022-09-02T11:14:17;1.97;;;0.90;;
34960;SDS011;30789;52.030;7.110;2022-09-02T11:16:46;2.83;;;1.23;;
34960;SDS011;30789;52.030;7.110;2022-09-02T11:19:16;1.45;;;0.93;;
34960;SDS011;30789;52.030;7.110;2022-09-02T11:21:48;2.00;;;0.93;;
34960;SDS011;30789;52.030;7.110;2022-09-02T11:24:17;1.77;;;0.70;;
34960;SDS011;30789;52.030;7.110;2022-09-02T11:26:45;1.30;;;1.00;;
34960;SDS011;30789;52.030;7.110;2022-09-02T11:29:15;2.10;;;0.80;;
34960;SDS011;30789;52.030;7.110;2022-09-02T11:31:43;1.80;;;1.00;;
34960;SDS011;30789;52.030;7.110;2022-09-02T11:34:15;1.23;;;0.80;;
34960;SDS011;30789;52.030;7.110;2022-09-02T11:36:43;0.90;;;0.90;;
34960;SDS011;30789;52.030;7.110;2022-09-02T11:39:10;2.78;;;1.10;;
34960;SDS011;30789;52.030;7.110;2022-09-02T11:41:47;1.63;;;1.27;;
34960;SDS011;30789;52.030;7.110;2022-09-02T11:44:24;2.03;;;1.08;;
34960;SDS011;30789;52.030;7.110;2022-09-02T11:46:57;1.13;;;0.90;;
34960;SDS011;30789;52.030;7.110;2022-09-02T11:49:45;1.20;;;0.90;;
34960;SDS011;30789;52.030;7.110;2022-09-02T11:52:20;0.80;;;0.80;;
34960;SDS011;30789;52.030;7.110;2022-09-02T11:54:50;1.02;;;0.82;;
34960;SDS011;30789;52.030;7.110;2022-09-02T11:57:20;2.30;;;1.20;;
34960;SDS011;30789;52.030;7.110;2022-09-02T12:00:08;1.00;;;0.90;;
34960;SDS011;30789;52.030;7.110;2022-09-02T12:02:37;5.72;;;1.00;;
34960;SDS011;30789;52.030;7.110;2022-09-02T12:07:49;0.85;;;0.85;;
34960;SDS011;30789;52.030;7.110;2022-09-02T12:13:03;1.73;;;0.80;;
34960;SDS011;30789;52.030;7.110;2022-09-02T12:15:31;1.77;;;0.90;;
34960;SDS011;30789;52.030;7.110;2022-09-02T12:26:20;2.45;;;0.80;;
34960;SDS011;30789;52.030;7.110;2022-09-02T12:28:47;1.27;;;0.82;;
34960;SDS011;30789;52.030;7.110;2022-09-02T12:31:16;2.60;;;0.88;;
34960;SDS011;30789;52.030;7.110;2022-09-02T12:34:12;1.50;;;1.00;;
34960;SDS011;30789;52.030;7.110;2022-09-02T12:36:59;1.23;;;0.90;;
34960;SDS011;30789;52.030;7.110;2022-09-02T12:39:47;3.83;;;0.90;;
34960;SDS011;30789;52.030;7.110;2022-09-02T12:42:18;1.88;;;0.80;;
34960;SDS011;30789;52.030;7.110;2022-09-02T12:44:46;2.03;;;0.90;;
34960;SDS011;30789;52.030;7.110;2022-09-02T12:47:21;2.20;;;1.00;;
34960;SDS011;30789;52.030;7.110;2022-09-02T12:49:51;1.23;;;0.85;;
34960;SDS011;30789;52.030;7.110;2022-09-02T12:55:06;0.73;;;0.73;;
34960;SDS011;30789;52.030;7.110;2022-09-02T12:57:37;1.00;;;0.90;;
34960;SDS011;30789;52.030;7.110;2022-09-02T13:00:04;1.98;;;0.93;;
34960;SDS011;30789;52.030;7.110;2022-09-02T13:02:37;1.40;;;0.85;;
34960;SDS011;30789;52.030;7.110;2022-09-02T13:05:10;1.35;;;0.88;;
34960;SDS011;30789;52.030;7.110;2022-09-02T13:10:25;1.60;;;0.80;;
34960;SDS011;30789;52.030;7.110;2022-09-02T13:12:59;1.20;;;1.10;;
34960;SDS011;30789;52.030;7.110;2022-09-02T13:15:39;3.15;;;0.98;;
34960;SDS011;30789;52.030;7.110;2022-09-02T13:23:48;1.30;;;0.85;;
34960;SDS011;30789;52.030;7.110;2022-09-02T13:26:25;0.85;;;0.70;;
34960;SDS011;30789;52.030;7.110;2022-09-02T13:29:01;1.10;;;0.75;;
34960;SDS011;30789;52.030;7.110;2022-09-02T13:31:31;1.23;;;0.93;;
34960;SDS011;30789;52.030;7.110;2022-09-02T13:33:59;1.17;;;0.88;;
34960;SDS011;30789;52.030;7.110;2022-09-02T13:36:27;2.55;;;1.17;;
34960;SDS011;30789;52.030;7.110;2022-09-02T13:38:55;1.20;;;0.85;;
34960;SDS011;30789;52.030;7.110;2022-09-02T13:41:30;1.10;;;0.70;;
34960;SDS011;30789;52.030;7.110;2022-09-02T13:44:06;1.58;;;1.05;;
34960;SDS011;30789;52.030;7.110;2022-09-02T13:46:33;1.00;;;0.80;;
34960;SDS011;30789;52.030;7.110;2022-09-02T13:48:59;1.95;;;1.02;;
34960;SDS011;30789;52.030;7.110;2022-09-02T13:51:26;1.77;;;0.80;;
34960;SDS011;30789;52.030;7.110;2022-09-02T13:53:52;0.65;;;0.65;;
34960;SDS011;30789;52.030;7.110;2022-09-02T13:56:22;2.15;;;0.77;;
34960;SDS011;30789;52.030;7.110;2022-09-02T13:58:50;2.90;;;1.00;;
34960;SDS011;30789;52.030;7.110;2022-09-02T14:01:22;1.00;;;0.90;;
34960;SDS011;30789;52.030;7.110;2022-09-02T14:06:15;4.00;;;1.17;;
34960;SDS011;30789;52.030;7.110;2022-09-02T14:08:42;0.70;;;0.70;;
34960;SDS011;30789;52.030;7.110;2022-09-02T14:11:10;1.00;;;0.65;;
34960;SDS011;30789;52.030;7.110;2022-09-02T14:13:40;2.28;;;0.90;;
34960;SDS011;30789;52.030;7.110;2022-09-02T14:16:24;1.65;;;0.65;;
34960;SDS011;30789;52.030;7.110;2022-09-02T14:19:03;0.77;;;0.60;;
34960;SDS011;30789;52.030;7.110;2022-09-02T14:21:30;1.73;;;0.70;;
34960;SDS011;30789;52.030;7.110;2022-09-02T14:23:56;2.60;;;1.08;;
34960;SDS011;30789;52.030;7.110;2022-09-02T14:26:24;1.67;;;0.75;;
34960;SDS011;30789;52.030;7.110;2022-09-02T14:28:54;1.10;;;1.00;;
34960;SDS011;30789;52.030;7.110;2022-09-02T14:31:22;0.80;;;0.73;;
34960;SDS011;30789;52.030;7.110;2022-09-02T14:33:48;2.70;;;1.00;;
34960;SDS011;30789;52.030;7.110;2022-09-02T14:36:28;2.83;;;1.02;;
34960;SDS011;30789;52.030;7.110;2022-09-02T14:38:56;2.40;;;0.90;;
34960;SDS011;30789;52.030;7.110;2022-09-02T14:41:23;3.33;;;0.95;;
34960;SDS011;30789;52.030;7.110;2022-09-02T14:43:50;4.07;;;1.33;;
34960;SDS011;30789;52.030;7.110;2022-09-02T14:46:28;1.17;;;0.75;;
34960;SDS011;30789;52.030;7.110;2022-09-02T14:48:57;2.00;;;1.10;;
34960;SDS011;30789;52.030;7.110;2022-09-02T14:51:26;0.70;;;0.70;;
34960;SDS011;30789;52.030;7.110;2022-09-02T14:53:54;1.42;;;0.90;;
34960;SDS011;30789;52.030;7.110;2022-09-02T14:59:01;1.48;;;0.95;;
34960;SDS011;30789;52.030;7.110;2022-09-02T15:01:29;1.35;;;0.90;;
34960;SDS011;30789;52.030;7.110;2022-09-02T15:03:55;1.92;;;0.90;;
34960;SDS011;30789;52.030;7.110;2022-09-02T15:06:21;1.88;;;0.90;;
34960;SDS011;30789;52.030;7.110;2022-09-02T15:08:48;1.17;;;0.90;;
34960;SDS011;30789;52.030;7.110;2022-09-02T15:11:14;0.82;;;0.75;;
34960;SDS011;30789;52.030;7.110;2022-09-02T15:13:44;4.82;;;0.90;;
34960;SDS011;30789;52.030;7.110;2022-09-02T15:16:10;1.30;;;0.80;;
34960;SDS011;30789;52.030;7.110;2022-09-02T15:18:38;0.80;;;0.80;;
34960;SDS011;30789;52.030;7.110;2022-09-02T15:21:04;2.28;;;0.80;;
34960;SDS011;30789;52.030;7.110;2022-09-02T15:23:30;2.88;;;1.00;;
34960;SDS011;30789;52.030;7.110;2022-09-02T15:25:57;0.70;;;0.70;;